Time;durP1;ratioP1;P1;durP2;ratioP2;P2;SDS_P1;SDS_P2;PMS_P1;PMS_P2;Temp;Humidity;BMP_temperature;BMP_pressure;BME280_temperature;BME280_humidity;BME280_pressure;Samples;Min_cycle;Max_cycle;Signal;HPM_P1;HPM_P2
2022/05/02 00:01:31;;;;;;;11.55;7.72;;;;;;;10.32;100.00;97886.22;5047553;28;20037;-84
2022/05/02 00:03:56;;;;;;;13.73;8.60;;;;;;;10.27;100.00;97880.00;5048157;28;20044;-82
2022/05/02 00:06:22;;;;;;;12.60;8.48;;;;;;;10.26;100.00;97881.09;5048217;28;20032;-86
2022/05/02 00:08:47;;;;;;;15.02;9.93;;;;;;;10.33;100.00;97887.03;5065814;28;20037;-85
2022/05/02 00:11:13;;;;;;;15.45;9.48;;;;;;;10.28;100.00;97882.44;5052806;28;20017;-88
2022/05/02 00:13:39;;;;;;;16.10;10.20;;;;;;;10.26;100.00;97873.72;5048219;28;20029;-82
2022/05/02 00:16:07;;;;;;;16.30;9.93;;;;;;;10.26;100.00;97878.38;5062982;28;20021;-88
2022/05/02 00:18:32;;;;;;;15.95;10.35;;;;;;;10.21;100.00;97862.88;5049983;28;20022;-86
2022/05/02 00:20:57;;;;;;;16.90;10.88;;;;;;;10.32;100.00;97869.00;5046459;28;20029;-86
2022/05/02 00:23:23;;;;;;;16.92;10.80;;;;;;;10.26;100.00;97865.53;5044231;28;20096;-83
2022/05/02 00:25:48;;;;;;;14.07;9.02;;;;;;;10.31;100.00;97870.91;5046031;28;20026;-85
2022/05/02 00:28:14;;;;;;;14.10;9.32;;;;;;;10.34;100.00;97873.06;5048296;28;20041;-87
2022/05/02 00:30:40;;;;;;;11.48;7.78;;;;;;;10.39;100.00;97867.53;5046429;28;20032;-83
2022/05/02 00:33:06;;;;;;;12.50;8.30;;;;;;;10.41;100.00;97862.56;5042710;28;20029;-85
2022/05/02 00:35:32;;;;;;;11.80;7.97;;;;;;;10.45;100.00;97868.25;5043686;28;20063;-81
2022/05/02 00:37:58;;;;;;;11.10;7.55;;;;;;;10.48;100.00;97868.47;5044480;28;20028;-81
2022/05/02 00:40:24;;;;;;;13.35;8.20;;;;;;;10.49;100.00;97858.34;5044413;28;20479;-84
2022/05/02 00:42:50;;;;;;;11.18;6.80;;;;;;;10.55;100.00;97863.47;5059225;28;20037;-83
2022/05/02 00:45:17;;;;;;;12.18;7.90;;;;;;;10.53;100.00;97873.03;5062161;28;20025;-84
2022/05/02 00:47:55;;;;;;;9.85;7.32;;;;;;;10.55;100.00;97868.09;5081579;28;20033;-84
2022/05/02 00:50:39;;;;;;;11.80;6.80;;;;;;;10.58;100.00;97870.25;5068548;28;20028;-82
2022/05/02 00:53:06;;;;;;;11.07;7.40;;;;;;;10.55;100.00;97874.41;5059387;28;20025;-85
2022/05/02 00:55:32;;;;;;;9.73;6.88;;;;;;;10.60;100.00;97871.56;5062358;28;20036;-83
2022/05/02 00:57:59;;;;;;;8.93;5.90;;;;;;;10.61;100.00;97862.25;5063306;28;20104;-86
2022/05/02 01:00:26;;;;;;;8.57;6.43;;;;;;;10.54;100.00;97850.88;5061868;28;20025;-84
2022/05/02 01:02:52;;;;;;;9.63;6.75;;;;;;;10.56;100.00;97851.38;5078682;28;20045;-84
2022/05/02 01:05:17;;;;;;;9.30;6.80;;;;;;;10.59;100.00;97855.44;5081135;28;20039;-84
2022/05/02 01:07:46;;;;;;;8.88;6.53;;;;;;;10.61;100.00;97851.31;5083002;28;20038;-82
2022/05/02 01:10:16;;;;;;;9.20;6.47;;;;;;;10.63;100.00;97849.09;5082922;28;20017;-82
2022/05/02 01:12:43;;;;;;;8.30;6.13;;;;;;;10.63;100.00;97849.09;5083838;28;20321;-81
2022/05/02 01:15:08;;;;;;;8.75;6.40;;;;;;;10.65;100.00;97846.06;5082497;28;20025;-83
2022/05/02 01:17:34;;;;;;;9.02;6.13;;;;;;;10.62;100.00;97842.00;5082112;28;20493;-81
2022/05/02 01:19:59;;;;;;;9.85;6.63;;;;;;;10.63;100.00;97834.59;5081551;28;20024;-84
2022/05/02 01:22:25;;;;;;;9.35;6.22;;;;;;;10.66;100.00;97837.56;5079728;28;20027;-88
2022/05/02 01:24:50;;;;;;;9.77;6.05;;;;;;;10.63;100.00;97831.88;5063443;28;21008;-88
2022/05/02 01:27:16;;;;;;;8.93;6.30;;;;;;;10.68;100.00;97834.53;5081410;28;20041;-82
2022/05/02 01:29:43;;;;;;;7.65;5.35;;;;;;;10.63;100.00;97832.69;5080892;28;20551;-83
2022/05/02 01:32:13;;;;;;;8.48;6.28;;;;;;;10.68;100.00;97827.13;5081990;28;20040;-83
2022/05/02 01:34:42;;;;;;;8.02;5.85;;;;;;;10.64;100.00;97817.91;5080266;28;20029;-82
2022/05/02 01:37:09;;;;;;;7.13;5.25;;;;;;;10.64;100.00;97814.34;5077593;28;20025;-83
2022/05/02 01:39:35;;;;;;;7.90;5.55;;;;;;;10.57;100.00;97822.13;5075103;28;20049;-82
2022/05/02 01:42:05;;;;;;;8.18;4.75;;;;;;;10.65;100.00;97826.94;5062640;28;20055;-84
2022/05/02 01:44:31;;;;;;;7.18;5.45;;;;;;;10.59;100.00;97815.22;5061880;28;20070;-80
2022/05/02 01:46:57;;;;;;;7.30;5.20;;;;;;;10.63;100.00;97816.28;5053678;28;20033;-83
2022/05/02 01:49:23;;;;;;;7.10;4.90;;;;;;;10.62;100.00;97809.16;5062239;28;20043;-85
2022/05/02 01:51:49;;;;;;;8.82;5.55;;;;;;;10.68;100.00;97810.69;5061372;28;20032;-84
2022/05/02 01:54:15;;;;;;;7.47;5.45;;;;;;;10.61;100.00;97807.56;5059085;28;20473;-86
2022/05/02 01:56:40;;;;;;;7.25;5.22;;;;;;;10.66;100.00;97802.00;5058467;28;20048;-85
2022/05/02 01:59:06;;;;;;;7.35;4.78;;;;;;;10.65;100.00;97802.31;5056751;28;20013;-82
2022/05/02 02:01:32;;;;;;;6.95;5.30;;;;;;;10.66;100.00;97802.00;5057173;28;20032;-83
2022/05/02 02:05:48;;;;;;;7.65;5.38;;;;;;;10.74;100.00;97806.75;5056659;28;20045;-84
2022/05/02 02:06:48;;;;;;;9.63;6.35;;;;;;;10.70;100.00;97805.75;5060222;28;20033;-88
2022/05/02 02:09:13;;;;;;;8.85;6.35;;;;;;;10.71;100.00;97795.63;5058142;28;20040;-85
2022/05/02 02:11:39;;;;;;;8.93;5.85;;;;;;;10.66;100.00;97803.91;5057390;28;20025;-84
2022/05/02 02:14:04;;;;;;;7.70;6.03;;;;;;;10.66;100.00;97796.53;5058423;28;20082;-82
2022/05/02 02:16:30;;;;;;;11.02;5.93;;;;;;;10.70;100.00;97794.81;5056062;28;20072;-83
2022/05/02 02:18:55;;;;;;;8.07;5.82;;;;;;;10.70;100.00;97789.34;5058411;28;20115;-82
2022/05/02 02:21:20;;;;;;;9.63;6.68;;;;;;;10.72;100.00;97803.53;5057870;28;20025;-82
2022/05/02 02:23:46;;;;;;;11.30;6.53;;;;;;;10.71;100.00;97796.44;5057935;28;20021;-83
2022/05/02 02:26:11;;;;;;;9.55;6.75;;;;;;;10.74;100.00;97800.50;5056788;28;20021;-86
2022/05/02 02:28:38;;;;;;;8.68;5.85;;;;;;;10.69;100.00;97809.59;5057231;28;20497;-86
2022/05/02 02:31:04;;;;;;;9.40;5.97;;;;;;;10.74;100.00;97801.28;5059477;28;20115;-85
2022/05/02 02:33:29;;;;;;;9.95;6.72;;;;;;;10.77;100.00;97796.34;5059203;28;20059;-87
2022/05/02 02:35:55;;;;;;;10.30;7.22;;;;;;;10.71;100.00;97799.16;5059641;28;20032;-82
2022/05/02 02:38:20;;;;;;;12.77;7.50;;;;;;;10.74;100.00;97795.81;5057691;28;20806;-82
2022/05/02 02:40:46;;;;;;;10.60;7.40;;;;;;;10.73;100.00;97794.22;5059621;28;20021;-84
2022/05/02 02:43:11;;;;;;;10.30;7.03;;;;;;;10.80;100.00;97802.03;5059979;28;20057;-83
2022/05/02 02:45:37;;;;;;;10.98;6.72;;;;;;;10.74;100.00;97798.56;5057338;28;20017;-81
2022/05/02 02:48:03;;;;;;;12.73;6.82;;;;;;;10.74;100.00;97800.50;5055772;28;20033;-87
2022/05/02 02:50:29;;;;;;;10.40;7.30;;;;;;;10.69;100.00;97800.56;5054843;28;20108;-82
2022/05/02 02:52:54;;;;;;;11.40;7.30;;;;;;;10.68;100.00;97797.03;5055323;28;20020;-83
2022/05/02 02:55:19;;;;;;;13.43;7.63;;;;;;;10.67;100.00;97802.81;5039044;28;20025;-85
2022/05/02 02:57:45;;;;;;;10.77;7.10;;;;;;;10.69;100.00;97795.91;5057125;28;20074;-82
2022/05/02 03:00:11;;;;;;;9.77;7.10;;;;;;;10.72;100.00;97798.06;5060163;28;20253;-85
2022/05/02 03:02:38;;;;;;;10.70;7.25;;;;;;;10.75;100.00;97796.63;5061252;28;20041;-81
2022/05/02 03:07:48;;;;;;;9.65;7.35;;;;;;;10.51;100.00;97801.44;5059744;28;20036;-83
2022/05/02 03:10:13;;;;;;;10.43;6.75;;;;;;;10.51;100.00;97795.97;5062033;28;20025;-87
2022/05/02 03:12:39;;;;;;;8.25;6.28;;;;;;;10.57;100.00;97801.06;5059787;28;20504;-86
2022/05/02 03:15:06;;;;;;;9.35;6.40;;;;;;;10.57;100.00;97801.06;5061685;28;20103;-85
2022/05/02 03:17:32;;;;;;;9.75;5.93;;;;;;;10.45;100.00;97787.03;5060725;28;20081;-82
2022/05/02 03:19:57;;;;;;;10.73;7.63;;;;;;;10.56;100.00;97793.13;5061201;28;20060;-85
2022/05/02 03:22:22;;;;;;;9.88;6.72;;;;;;;10.67;100.00;97800.91;5062030;28;20470;-86
2022/05/02 03:24:48;;;;;;;10.10;6.20;;;;;;;10.61;100.00;97804.81;5060884;28;20088;-83
2022/05/02 03:27:13;;;;;;;10.82;6.30;;;;;;;10.47;100.00;97794.94;5060066;28;20048;-84
2022/05/02 03:29:38;;;;;;;9.13;6.65;;;;;;;10.48;100.00;97797.38;5062491;28;20032;-84
2022/05/02 03:32:04;;;;;;;9.13;5.97;;;;;;;10.46;100.00;97799.59;5063748;28;20600;-80
2022/05/02 03:34:30;;;;;;;8.75;6.50;;;;;;;10.48;100.00;97797.38;5061265;28;20048;-85
2022/05/02 03:36:55;;;;;;;11.27;6.32;;;;;;;10.54;100.00;97790.72;5061959;28;20075;-82
2022/05/02 03:39:20;;;;;;;8.32;5.75;;;;;;;10.56;100.00;97793.13;5059546;28;20398;-87
2022/05/02 03:41:46;;;;;;;9.93;6.72;;;;;;;10.63;100.00;97799.84;5059803;28;20021;-83
2022/05/02 03:44:11;;;;;;;8.23;5.82;;;;;;;10.57;100.00;97790.13;5060659;28;20032;-88
2022/05/02 03:46:37;;;;;;;9.57;6.40;;;;;;;10.61;100.00;97796.63;5065520;28;20029;-84
2022/05/02 03:49:02;;;;;;;9.05;6.57;;;;;;;10.67;100.00;97783.66;5067093;28;20398;-91
2022/05/02 03:51:28;;;;;;;8.57;5.72;;;;;;;10.68;100.00;97785.28;5065660;28;20033;-88
2022/05/02 03:53:54;;;;;;;9.63;5.65;;;;;;;10.67;100.00;97784.47;5065849;28;20033;-88
2022/05/02 03:56:19;;;;;;;10.48;5.30;;;;;;;10.68;100.00;97790.78;5066179;28;20028;-87
2022/05/02 03:58:44;;;;;;;7.18;5.47;;;;;;;10.62;100.00;97779.06;5063372;28;20394;-81
2022/05/02 04:01:10;;;;;;;8.98;5.28;;;;;;;10.64;100.00;97787.81;5064267;28;20037;-84
2022/05/02 04:03:35;;;;;;;7.60;5.45;;;;;;;10.67;100.00;97791.88;5062738;28;20049;-83
2022/05/02 04:06:02;;;;;;;8.25;5.57;;;;;;;10.66;100.00;97790.25;5063206;28;20025;-83
2022/05/02 04:08:27;;;;;;;7.43;5.20;;;;;;;10.59;100.00;97782.41;5070399;28;20025;-85
2022/05/02 04:10:53;;;;;;;9.38;6.45;;;;;;;10.69;100.00;97787.72;5068156;28;20021;-87
2022/05/02 04:13:18;;;;;;;7.60;5.50;;;;;;;10.65;100.00;97780.44;5067334;28;20035;-84
2022/05/02 04:15:44;;;;;;;6.80;4.90;;;;;;;10.67;100.00;97791.88;5068350;28;20024;-85
2022/05/02 04:18:10;;;;;;;6.07;4.80;;;;;;;10.71;100.00;97784.69;5064103;28;20027;-87
2022/05/02 04:20:35;;;;;;;7.00;4.85;;;;;;;10.73;100.00;97794.22;5065223;28;20541;-84
2022/05/02 04:23:00;;;;;;;7.28;5.05;;;;;;;10.76;100.00;97787.34;5062800;28;20021;-87
2022/05/02 04:25:26;;;;;;;7.93;4.75;;;;;;;10.77;100.00;97789.75;5063823;28;20051;-82
2022/05/02 04:27:51;;;;;;;7.43;4.70;;;;;;;10.75;100.00;97796.63;5059142;28;20021;-83
2022/05/02 04:30:20;;;;;;;8.80;4.95;;;;;;;10.81;100.00;97791.91;5057817;28;20040;-83
2022/05/02 04:32:45;;;;;;;6.07;4.45;;;;;;;10.76;100.00;97790.06;5056585;28;20017;-85
2022/05/02 04:35:10;;;;;;;6.20;4.50;;;;;;;10.77;100.00;97787.00;5057181;28;20466;-85
2022/05/02 04:37:37;;;;;;;7.55;4.82;;;;;;;10.77;100.00;97789.75;5054159;28;20013;-77
2022/05/02 04:40:04;;;;;;;5.32;4.07;;;;;;;10.88;100.00;97800.53;5054837;28;20032;-84
2022/05/02 04:42:29;;;;;;;8.60;4.70;;;;;;;10.87;100.00;97796.19;5064508;28;20028;-83
2022/05/02 04:44:55;;;;;;;6.20;4.50;;;;;;;10.95;100.00;97807.25;5066974;28;20025;-82
2022/05/02 04:47:20;;;;;;;7.60;4.03;;;;;;;10.90;100.00;97798.31;5067511;28;20064;-83
2022/05/02 04:49:46;;;;;;;8.40;5.00;;;;;;;10.79;100.00;97791.38;5065715;28;20025;-85
2022/05/02 04:52:11;;;;;;;5.50;4.00;;;;;;;10.83;100.00;97793.22;5061409;28;20113;-83
2022/05/02 04:54:36;;;;;;;5.55;3.75;;;;;;;10.79;100.00;97797.66;5066228;28;20029;-78
2022/05/02 04:57:02;;;;;;;6.20;4.20;;;;;;;10.94;100.00;97796.56;5069171;28;20017;-84
2022/05/02 04:59:27;;;;;;;7.95;4.47;;;;;;;10.91;100.00;97802.66;5062187;28;20025;-81
2022/05/02 05:01:53;;;;;;;7.63;4.70;;;;;;;10.98;100.00;97800.34;5061663;28;20060;-84
2022/05/02 05:04:18;;;;;;;7.05;3.92;;;;;;;10.84;100.00;97799.53;5059882;28;20409;-83
2022/05/02 05:06:43;;;;;;;8.02;4.50;;;;;;;10.83;100.00;97798.69;5066160;28;20036;-86
2022/05/02 05:09:09;;;;;;;5.95;4.20;;;;;;;10.92;100.00;97801.56;5064199;28;20025;-85
2022/05/02 05:12:01;;;;;;;8.45;4.20;;;;;;;10.93;100.00;97798.50;5061474;28;20029;-82
2022/05/02 05:17:53;;;;;;;5.30;4.00;;;;;;;11.07;100.00;97814.94;5061424;28;20055;-87
2022/05/02 05:20:21;;;;;;;6.03;4.57;;;;;;;11.06;100.00;97818.78;5059682;28;20025;-84
2022/05/02 05:23:07;;;;;;;5.05;3.75;;;;;;;10.99;100.00;97824.69;5061220;28;20506;-82
2022/05/02 05:25:48;;;;;;;5.95;3.72;;;;;;;10.90;100.00;97814.72;5060752;28;20095;-83
2022/05/02 05:28:25;;;;;;;5.85;3.90;;;;;;;10.92;100.00;97827.00;5061192;28;20040;-86
2022/05/02 05:31:14;;;;;;;6.38;3.63;;;;;;;10.99;100.00;97824.69;5060165;28;20524;-84
2022/05/02 05:33:56;;;;;;;4.60;3.72;;;;;;;11.05;100.00;97830.88;5059423;28;20097;-84
2022/05/02 05:36:45;;;;;;;5.97;4.00;;;;;;;11.08;100.00;97825.63;5061322;28;20052;-85
2022/05/02 05:39:21;;;;;;;5.10;4.18;;;;;;;11.13;100.00;97825.50;5063704;28;20025;-80
2022/05/02 05:41:58;;;;;;;6.65;3.50;;;;;;;11.18;100.00;97828.16;5061769;28;20110;-83
2022/05/02 05:44:47;;;;;;;5.35;3.22;;;;;;;11.16;100.00;97824.91;5059982;28;20029;-87
2022/05/02 05:47:19;;;;;;;5.15;3.47;;;;;;;11.30;100.00;97830.41;5063913;28;20037;-83
2022/05/02 05:49:48;;;;;;;5.22;3.30;;;;;;;11.35;100.00;97838.50;5061102;28;20103;-84
2022/05/02 05:52:33;;;;;;;5.03;3.47;;;;;;;11.42;100.00;97840.84;5055458;28;20016;-87
2022/05/02 05:55:27;;;;;;;4.82;3.33;;;;;;;11.48;100.00;97845.13;5064421;28;20100;-83
2022/05/02 05:58:02;;;;;;;5.78;3.30;;;;;;;11.49;100.00;97846.75;5057641;28;20040;-88
2022/05/02 06:00:31;;;;;;;4.68;3.22;;;;;;;11.56;100.00;97842.47;5062734;28;20009;-83
2022/05/02 06:03:14;;;;;;;6.28;3.72;;;;;;;11.57;100.00;97841.38;5062147;28;20067;-82
2022/05/02 06:05:45;;;;;;;4.32;3.70;;;;;;;11.65;100.00;97845.34;5062929;28;20059;-85
2022/05/02 06:08:15;;;;;;;6.70;4.45;;;;;;;11.70;100.00;97843.31;5066665;28;20072;-87
2022/05/02 06:10:45;;;;;;;6.57;4.82;;;;;;;11.68;100.00;97851.00;5062765;28;20033;-80
2022/05/02 06:13:14;;;;;;;5.10;3.00;;;;;;;11.58;100.00;97836.72;5053320;28;20033;-83
2022/05/02 06:18:31;;;;;;;7.75;5.28;;;;;;;11.68;100.00;97845.50;5057534;28;20095;-87
2022/05/02 06:21:02;;;;;;;5.72;3.60;;;;;;;11.77;100.00;97841.00;5060762;28;20047;-81
2022/05/02 06:23:47;;;;;;;6.13;3.65;;;;;;;11.85;100.00;97841.38;5059528;28;20019;-83
2022/05/02 06:26:16;;;;;;;4.63;3.30;;;;;;;11.97;100.00;97838.91;5061858;28;20029;-86
2022/05/02 06:28:44;;;;;;;4.75;3.15;;;;;;;11.96;100.00;97840.06;5059838;28;20033;-84
2022/05/02 06:31:14;;;;;;;4.05;2.65;;;;;;;12.00;100.00;97835.56;5062530;28;20035;-84
2022/05/02 06:33:42;;;;;;;5.40;3.05;;;;;;;12.00;100.00;97838.31;5080019;28;20041;-84
2022/05/02 06:36:07;;;;;;;4.15;2.40;;;;;;;12.08;100.00;97838.41;5073526;28;20035;-77
2022/05/02 06:38:51;;;;;;;4.60;2.92;;;;;;;12.05;100.00;97840.97;5073822;28;20111;-81
2022/05/02 06:41:37;;;;;;;4.47;3.03;;;;;;;12.11;100.00;97834.25;5080484;28;20034;-87
2022/05/02 06:44:11;;;;;;;6.50;3.28;;;;;;;12.04;100.00;97836.59;5078622;28;20030;-83
2022/05/02 06:46:57;;;;;;;5.47;2.85;;;;;;;11.91;100.00;97846.44;5075063;28;20120;-81
2022/05/02 06:49:24;;;;;;;4.85;2.80;;;;;;;11.87;100.00;97845.47;5077757;28;20036;-84
2022/05/02 06:51:54;;;;;;;4.65;2.70;;;;;;;11.74;100.00;97838.88;5077589;28;20036;-85
2022/05/02 06:54:50;;;;;;;4.30;2.83;;;;;;;11.80;100.00;97845.88;5079558;28;20021;-85
2022/05/02 06:57:34;;;;;;;;;;;;;;;11.96;100.00;97842.81;5071725;28;20083;-78
2022/05/02 07:00:10;;;;;;;5.30;2.67;;;;;;;12.04;100.00;97844.81;5074417;28;19924;-80
2022/05/02 07:03:14;;;;;;;3.22;2.20;;;;;;;12.10;100.00;97855.34;5055239;28;20052;-76
2022/05/02 07:05:42;;;;;;;3.40;2.17;;;;;;;12.22;100.00;97850.16;5073335;28;20064;-75
2022/05/02 07:08:07;;;;;;;3.58;2.30;;;;;;;12.33;100.00;97854.31;5069981;28;20539;-77
2022/05/02 07:10:34;;;;;;;4.03;2.95;;;;;;;12.39;100.00;97841.28;5050531;28;20033;-79
2022/05/02 07:13:00;;;;;;;5.30;2.45;;;;;;;12.63;100.00;97850.03;5056937;28;20234;-80
2022/05/02 07:15:42;;;;;;;4.68;2.60;;;;;;;13.14;100.00;97837.78;5068729;28;20130;-74
2022/05/02 07:18:30;;;;;;;4.72;2.63;;;;;;;13.61;100.00;97850.78;5072931;28;20420;-83
2022/05/02 07:21:05;;;;;;;4.65;2.30;;;;;;;13.97;100.00;97855.28;5052293;28;20044;-84
2022/05/02 07:24:01;;;;;;;4.30;2.67;;;;;;;14.18;100.00;97851.63;5055441;28;20481;-81
2022/05/02 07:26:30;;;;;;;3.53;2.17;;;;;;;14.39;100.00;97852.63;5051349;28;20056;-77
2022/05/02 07:29:00;;;;;;;3.53;2.10;;;;;;;14.45;98.24;97856.03;5052715;28;20382;-80
2022/05/02 07:31:27;;;;;;;4.43;1.92;;;;;;;14.26;98.46;97852.75;5058613;28;20063;-86
2022/05/02 07:33:54;;;;;;;5.88;2.58;;;;;;;14.22;100.00;97871.03;5057670;28;20104;-80
2022/05/02 07:36:24;;;;;;;5.72;2.33;;;;;;;14.00;100.00;97865.66;5054361;28;20151;-79
2022/05/02 07:39:03;;;;;;;3.47;2.40;;;;;;;13.97;100.00;97858.03;5052488;28;20021;-79
2022/05/02 07:41:29;;;;;;;4.57;2.30;;;;;;;13.98;100.00;97859.63;5051319;28;20029;-76
2022/05/02 07:44:00;;;;;;;4.03;2.38;;;;;;;13.88;100.00;97861.56;5050365;28;20652;-78
2022/05/02 07:46:47;;;;;;;3.10;2.00;;;;;;;14.34;100.00;97852.00;5055265;28;20582;-83
2022/05/02 07:49:33;;;;;;;4.53;2.22;;;;;;;14.54;99.79;97859.59;5052309;28;20179;-79
2022/05/02 07:52:01;;;;;;;12.38;6.30;;;;;;;14.18;100.00;97859.88;5056038;28;20025;-78
2022/05/02 07:54:28;;;;;;;33.47;16.77;;;;;;;13.99;100.00;97858.53;5054900;28;20025;-82
2022/05/02 07:57:02;;;;;;;80.90;45.00;;;;;;;13.87;100.00;97862.72;5054487;28;20036;-81
2022/05/02 07:59:35;;;;;;;6.47;3.63;;;;;;;13.44;100.00;97861.69;5053304;28;22095;-80
2022/05/02 08:02:00;;;;;;;3.97;2.40;;;;;;;13.53;100.00;97862.56;5054215;28;20184;-81
2022/05/02 08:04:26;;;;;;;3.78;2.47;;;;;;;13.58;100.00;97854.19;5053015;28;20127;-79
2022/05/02 08:07:11;;;;;;;5.45;2.50;;;;;;;13.79;100.00;97860.72;5052886;28;20627;-77
2022/05/02 08:10:07;;;;;;;3.45;2.38;;;;;;;14.37;100.00;97862.34;5054435;28;20060;-79
2022/05/02 08:12:44;;;;;;;3.45;2.10;;;;;;;15.01;100.00;97857.78;5053003;28;20025;-77
2022/05/02 08:15:24;;;;;;;3.78;2.42;;;;;;;15.28;98.11;97864.88;5063861;28;20157;-76
2022/05/02 08:18:07;;;;;;;3.70;2.22;;;;;;;15.45;96.62;97870.34;5082294;28;20067;-77
2022/05/02 08:20:45;;;;;;;4.53;2.53;;;;;;;15.83;92.07;97864.88;5075344;28;20024;-76
2022/05/02 08:29:34;;;;;;;3.67;2.40;;;;;;;17.72;82.64;97857.84;5051833;28;20454;-78
2022/05/02 08:32:10;;;;;;;3.50;2.70;;;;;;;19.83;72.30;97855.06;5053338;28;20032;-80
2022/05/02 08:34:38;;;;;;;5.13;2.60;;;;;;;20.79;66.74;97863.72;5050527;28;20039;-75
2022/05/02 08:37:55;;;;;;;3.20;2.50;;;;;;;21.82;62.05;97856.25;5050573;28;20029;-76
2022/05/02 08:40:27;;;;;;;3.28;2.30;;;;;;;24.03;54.93;97864.41;5031265;28;20036;-77
2022/05/02 08:43:15;;;;;;;3.85;2.58;;;;;;;25.09;51.45;97864.41;5050842;28;20024;-75
2022/05/02 08:46:08;;;;;;;4.00;2.20;;;;;;;25.44;48.30;97861.72;5044827;28;20444;-76
2022/05/02 08:52:14;;;;;;;3.10;2.05;;;;;;;26.12;46.27;97851.47;5040879;28;20032;-74
2022/05/02 08:55:01;;;;;;;2.90;2.08;;;;;;;25.39;45.08;97862.94;5044562;28;20044;-76
2022/05/02 08:57:45;;;;;;;3.63;2.45;;;;;;;25.67;43.70;97861.44;5044407;28;20028;-76
2022/05/02 09:00:22;;;;;;;3.05;2.00;;;;;;;24.78;45.64;97857.41;5048965;28;20059;-76
2022/05/02 09:03:09;;;;;;;5.03;2.55;;;;;;;24.31;44.65;97856.28;5047005;28;20049;-75
2022/05/02 09:05:37;;;;;;;3.30;2.30;;;;;;;25.66;42.88;97854.19;5048633;28;20351;-74
2022/05/02 09:08:15;;;;;;;2.92;1.98;;;;;;;27.14;38.73;97851.34;5056437;28;20028;-75
2022/05/02 09:11:31;;;;;;;2.65;1.90;;;;;;;27.18;38.68;97854.94;5057657;28;20397;-76
2022/05/02 09:14:18;;;;;;;3.15;2.13;;;;;;;27.56;37.93;97853.19;5015304;28;20073;-76
2022/05/02 09:17:02;;;;;;;4.32;2.40;;;;;;;28.30;37.22;97852.69;5049309;28;20073;-75
2022/05/02 09:19:52;;;;;;;3.58;2.20;;;;;;;27.77;38.74;97857.88;5047068;28;20031;-72
2022/05/02 09:22:39;;;;;;;3.35;2.17;;;;;;;26.26;40.67;97843.88;5048781;28;20027;-75
2022/05/02 09:25:10;;;;;;;3.10;2.20;;;;;;;24.11;44.34;97846.56;5048308;28;20025;-76
2022/05/02 09:27:36;;;;;;;3.42;2.25;;;;;;;24.38;44.85;97839.56;5049747;28;20111;-75
2022/05/02 09:30:23;;;;;;;3.42;2.20;;;;;;;23.09;47.94;97837.84;5049849;28;20120;-75
2022/05/02 09:33:24;;;;;;;3.53;2.28;;;;;;;22.75;48.66;97833.44;5045128;28;20017;-75
2022/05/02 09:36:01;;;;;;;3.63;2.70;;;;;;;22.61;48.75;97822.06;5061706;28;20100;-81
2022/05/02 09:38:29;;;;;;;3.13;2.10;;;;;;;22.07;50.44;97831.63;5063396;28;20037;-82
2022/05/02 09:41:14;;;;;;;3.17;2.20;;;;;;;21.68;50.99;97816.19;5059153;28;20473;-81
2022/05/02 09:50:20;;;;;;;4.28;2.30;;;;;;;23.57;47.54;97824.88;5044676;28;20051;-87
2022/05/02 09:53:26;;;;;;;3.20;2.47;;;;;;;23.53;47.44;97824.03;5054448;28;20033;-80
2022/05/02 09:58:54;;;;;;;3.30;2.17;;;;;;;23.83;46.57;97818.34;5062466;28;20664;-80
2022/05/02 10:01:30;;;;;;;5.10;2.70;;;;;;;23.69;44.50;97818.19;5054059;28;20142;-81
2022/05/02 10:03:59;;;;;;;3.28;2.30;;;;;;;24.21;44.59;97815.09;5044228;28;20071;-80
2022/05/02 10:06:34;;;;;;;3.58;2.05;;;;;;;24.64;43.75;97815.34;5051281;28;20028;-82
2022/05/02 10:09:18;;;;;;;3.63;2.08;;;;;;;25.77;41.24;97813.00;5053634;28;20025;-80
2022/05/02 10:12:21;;;;;;;7.22;2.30;;;;;;;25.56;41.38;97806.16;5047559;28;20024;-84
2022/05/02 10:15:00;;;;;;;3.60;2.03;;;;;;;26.66;38.80;97806.13;5050105;28;20465;-81
2022/05/02 10:18:04;;;;;;;4.82;2.35;;;;;;;25.39;40.43;97801.28;5056371;28;20032;-85
2022/05/02 10:20:44;;;;;;;3.25;2.15;;;;;;;24.17;43.06;97788.28;5067877;28;20103;-83
2022/05/02 10:23:38;;;;;;;3.45;2.20;;;;;;;23.83;43.73;97779.22;5067805;28;20020;-83
2022/05/02 10:26:33;;;;;;;3.75;2.20;;;;;;;24.56;43.07;97780.16;5062335;28;20112;-84
2022/05/02 10:29:08;;;;;;;2.57;1.77;;;;;;;25.15;42.12;97784.44;5073357;28;20033;-82
2022/05/02 10:31:35;;;;;;;4.55;2.80;;;;;;;23.97;44.50;97777.31;5072335;28;20029;-86
2022/05/02 10:34:03;;;;;;;4.50;2.20;;;;;;;23.37;46.36;97771.19;5068546;28;20033;-81
2022/05/02 10:36:36;;;;;;;4.03;2.17;;;;;;;22.69;48.04;97776.38;5064188;28;20029;-82
2022/05/02 10:39:14;;;;;;;3.85;2.13;;;;;;;22.46;46.45;97770.06;5060777;28;20017;-82
2022/05/02 10:41:48;;;;;;;3.17;2.28;;;;;;;21.93;48.78;97774.88;5070965;28;20039;-81
2022/05/02 10:44:15;;;;;;;5.50;2.15;;;;;;;21.70;50.28;97760.94;5057123;28;20048;-82
2022/05/02 10:46:44;;;;;;;4.15;2.28;;;;;;;21.42;50.71;97763.25;5056909;28;20033;-80
2022/05/02 10:49:48;;;;;;;3.00;2.08;;;;;;;21.21;51.17;97761.66;5054305;28;20029;-75
2022/05/02 10:52:25;;;;;;;3.80;2.28;;;;;;;20.69;49.00;97767.78;5036617;28;20045;-76
2022/05/02 10:55:05;;;;;;;3.40;2.08;;;;;;;21.19;48.60;97758.47;5042878;28;20087;-80
2022/05/02 10:57:45;;;;;;;2.65;1.92;;;;;;;20.37;51.28;97763.50;5067850;28;20038;-83
2022/05/02 11:00:12;;;;;;;4.57;2.00;;;;;;;20.12;53.28;97771.28;5065718;28;20063;-82
2022/05/02 11:03:11;;;;;;;6.30;2.22;;;;;;;20.42;52.65;97768.81;5060942;28;20060;-81
2022/05/02 11:05:40;;;;;;;4.57;2.22;;;;;;;20.52;51.77;97761.84;5070285;28;20025;-85
2022/05/02 11:08:11;;;;;;;2.90;2.13;;;;;;;20.42;52.29;97759.66;5064593;28;20055;-86
2022/05/02 11:10:57;;;;;;;3.63;2.53;;;;;;;19.98;52.70;97754.28;5061392;28;20017;-82
2022/05/02 11:13:35;;;;;;;3.90;2.40;;;;;;;19.63;49.96;97751.47;5060443;28;20520;-78
2022/05/02 11:16:27;;;;;;;3.35;2.15;;;;;;;19.51;49.15;97762.69;5061701;28;20539;-82
2022/05/02 11:22:23;;;;;;;3.67;2.20;;;;;;;19.24;45.00;97753.22;5079507;28;20044;-83
2022/05/02 11:25:06;;;;;;;4.50;2.22;;;;;;;19.22;45.15;97743.66;5063778;28;20021;-88
2022/05/02 11:28:04;;;;;;;2.38;1.75;;;;;;;19.63;45.53;97759.00;5071763;28;20028;-86
2022/05/02 11:30:46;;;;;;;4.68;2.92;;;;;;;19.79;45.37;97748.69;5078721;28;20051;-86
2022/05/02 11:33:15;;;;;;;6.43;3.33;;;;;;;19.85;44.85;97750.00;5055277;28;20009;-87
2022/05/02 11:35:48;;;;;;;23.45;14.68;;;;;;;20.14;45.01;97738.38;5075999;28;20096;-85
2022/05/02 11:38:23;;;;;;;3.72;2.28;;;;;;;20.56;43.70;97759.94;5078233;28;20017;-82
2022/05/02 11:40:57;;;;;;;2.92;1.90;;;;;;;20.17;41.18;97745.19;5073181;28;20088;-84
2022/05/02 11:43:23;;;;;;;3.65;2.25;;;;;;;19.47;41.89;97755.41;5074687;28;20043;-86
2022/05/02 11:46:13;;;;;;;2.60;1.90;;;;;;;19.33;42.14;97757.81;5070517;28;20025;-85
2022/05/02 11:48:38;;;;;;;3.95;2.22;;;;;;;18.96;42.42;97751.66;5073860;28;20025;-81
2022/05/02 11:51:05;;;;;;;2.83;2.00;;;;;;;19.13;43.24;97746.59;5055767;28;20027;-81
2022/05/02 11:53:35;;;;;;;2.80;1.83;;;;;;;19.29;43.38;97734.72;5075739;28;20024;-85
2022/05/02 11:56:05;;;;;;;3.90;2.10;;;;;;;19.37;41.71;97750.34;5075196;28;20037;-85
2022/05/02 11:58:45;;;;;;;2.38;1.75;;;;;;;18.83;40.86;97750.91;5072511;28;20013;-81
2022/05/02 12:01:17;;;;;;;4.10;2.00;;;;;;;18.61;41.73;97741.19;5070990;28;20017;-84
2022/05/02 12:03:42;;;;;;;2.80;1.90;;;;;;;18.94;42.83;97743.72;5068790;28;20063;-82
2022/05/02 12:06:15;;;;;;;2.50;1.90;;;;;;;19.18;42.11;97743.56;5074808;28;20036;-82
2022/05/02 12:08:46;;;;;;;2.17;1.70;;;;;;;18.75;41.63;97743.56;5071446;28;20021;-87
2022/05/02 12:11:15;;;;;;;3.95;2.22;;;;;;;18.95;41.42;97739.75;5071797;28;20021;-85
2022/05/02 12:13:47;;;;;;;3.42;2.00;;;;;;;18.85;41.86;97740.28;5068107;28;20023;-86
2022/05/02 12:16:19;;;;;;;2.67;1.80;;;;;;;19.09;42.15;97731.84;5065289;28;20063;-81
2022/05/02 12:18:56;;;;;;;2.92;2.10;;;;;;;18.93;42.19;97752.38;5073565;28;20024;-87
2022/05/02 12:21:23;;;;;;;2.88;2.10;;;;;;;18.70;43.05;97746.63;5071278;28;20005;-83
2022/05/02 12:23:50;;;;;;;2.75;2.00;;;;;;;18.96;44.29;97737.78;5075799;28;20013;-82